SKBG/BGA METAR and TAF weather

Enter ICAO airport designator
Station Type Date Time Source
SKBG METAR 2022/06/27 17:00 UTC NOAA

SKBG 271700Z 34008KT 9999 VCSH SCT015TCU SCT090 25/18 Q1018 RMK TCU VCSH NW/NW A3006


Station Type Date Time Source
SKBG Decoded METAR 2022/06/27 17:00 UTC NOAA

Bucaramanga / Palonegro, Colombia (SKBG) 07-06N 073-12W
Jun 27, 2022 - 01:00 PM EDT / 2022.06.27 1700 UTC
Wind: from the NNW (340 degrees) at 9 MPH (8 KT):0
Visibility: greater than 7 mile(s):0
Sky conditions: partly cloudy
Weather: showers in the vicinity; showers in the vicinity; Towering cumulus clouds observed
Temperature: 77 F (25 C)
Dew Point: 64 F (18 C)
Relative Humidity: 65%
Pressure (altimeter): 30.06 in. Hg (1018 hPa)
ob: SKBG 271700Z 34008KT 9999 VCSH SCT015TCU SCT090 25/18 Q1018 RMK TCU VCSH NW/NW A3006
cycle: 17

Station Type Date Time Source
SKBG TAF 2022/06/27 18:39 UTC NOAA

TAF TAF SKBG 271630Z 2718/2818 10003KT 9999 SCT017
BECMG 2719/2721 33008KT
TEMPO 2721/2801 5000 TSRA BKN012CB
BECMG 2801/2803 VRB02KT SCT010 BKN070
TEMPO 2809/2813 2000 BCFG BKN007 TX26/2718Z TN18/2810Z

Example: see airport list